Aviation Digital Data Service (ADDS)

Output produced by METARs form (1353 UTC 18 January 2018)
found at http://www.aviationweather.gov/adds/metars/
 
KJST 181254Z AUTO 25015G24KT 9SM CLR M11/M17 A3006 RMK AO2 SLP224 T11061167
KJST 181154Z AUTO 23015KT 10SM CLR M12/M16 A3007 RMK AO2 SLP230 60000 T11221161 11122 21144 57012
KJST 181054Z AUTO 25014G25KT 10SM CLR M13/M16 A3008 RMK AO2 SLP237 T11281156
KJST 180954Z AUTO 25014KT 10SM FEW009 M13/M16 A3009 RMK AO2 SLP240 T11331156
KJST 180903Z AUTO 26011KT 10SM SCT009 SCT120 M14/M16 A3011 RMK AO2 T11391156
KJST 180854Z AUTO 26011KT 8SM BKN009 BKN120 M14/M16 A3011 RMK AO2 SNE05 SLP246 P0000 60000 T11391156 56007
KJST 180834Z AUTO 25012KT 6SM BR OVC010 M14/M16 A3011 RMK AO2 SNE05 P0000 T11391156
KJST 180754Z AUTO 26012KT 4SM -SN BR OVC009 M14/M16 A3012 RMK AO2 SLP251 P0000 T11391156
KJST 180712Z AUTO 26011KT 3SM -SN BR OVC008 M14/M16 A3013 RMK AO2 P0000 T11391156
KJST 180654Z AUTO 25012KT 2 1/2SM -SN BR OVC008 M14/M16 A3013 RMK AO2 SNB0555 SLP254 P0000 T11441161
KJST 180554Z AUTO 25011KT 4SM BR OVC008 M14/M16 A3014 RMK AO2 SNE22 SLP258 P0000 60000 T11441161 11128 21150 56015
KJST 180454Z AUTO 26011KT 3SM -SN BR OVC008 M14/M16 A3015 RMK AO2 SLP265 P0000 T11441161 411171161
KJST 180411Z AUTO 26012KT 3SM -SN BR OVC009 M14/M16 A3017 RMK AO2 P0000 T11441161
KJST 180401Z AUTO 26011KT 4SM -SN BR OVC010 M14/M16 A3017 RMK AO2 P0000 T11441161
KJST 180354Z AUTO 26011KT 5SM -SN BR BKN008 M15/M16 A3017 RMK AO2 SNE13B54 SLP271 P0000 T11501161
KJST 180254Z AUTO 27013KT 5SM -SN BR OVC009 M14/M16 A3019 RMK AO2 SLP277 P0000 60000 T11441161 58007
KJST 180235Z AUTO 27010KT 5SM -SN BR OVC009 M14/M16 A3019 RMK AO2 P0000 T11391156
KJST 180154Z AUTO 28013KT 5SM -SN BR OVC010 M14/M16 A3020 RMK AO2 SNB23 SLP280 P0000 T11391156
KJST 180054Z AUTO 26012KT 7SM OVC012 M13/M16 A3020 RMK AO2 SNE06 SLP282 P0000 T11331156
KJST 172354Z AUTO 27011KT 5SM -SN OVC014 M13/M16 A3021 RMK AO2 SLP282 P0000 60000 T11281156 11122 21139 58002
KJST 172333Z AUTO 27011KT 3SM -SN BR OVC014 M13/M15 A3021 RMK AO2 P0000 T11281150
KJST 172325Z AUTO 27010KT 1 3/4SM -SN BR OVC014 M13/M15 A3022 RMK AO2 P0000 T11281150
KJST 172311Z AUTO 27009KT 2SM -SN BR OVC012 M13/M15 A3022 RMK AO2 P0000 T11281150
KJST 172302Z AUTO 27007KT 1 3/4SM -SN BR OVC013 M13/M15 A3022 RMK AO2 P0000 T11281150
KJST 172254Z AUTO 27010KT 2 1/2SM -SN BR OVC013 M13/M15 A3022 RMK AO2 VIS 1 3/4V4 SLP286 P0000 T11281150
KJST 172224Z AUTO 27009KT 3SM -SN BR OVC013 M13/M15 A3022 RMK AO2 P0000 T11281150
KJST 172215Z AUTO 27009KT 2 1/2SM -SN BR OVC013 M13/M15 A3022 RMK AO2 P0000 T11281150
KJST 172208Z AUTO 27008KT 3SM -SN BR OVC013 M13/M15 A3021 RMK AO2 P0000 T11281150
KJST 172154Z AUTO 27009KT 2SM -SN BR OVC013 M13/M15 A3021 RMK AO2 SLP281 P0000 T11281150
KJST 172119Z AUTO 28010KT 2 1/2SM -SN BR OVC013 M13/M15 A3021 RMK AO2 P0000 T11281150
KJST 172054Z AUTO 30010KT 3SM -SN OVC014 M13/M16 A3021 RMK AO2 SLP283 P0000 60000 T11281156 58010
KJST 172033Z AUTO 30012KT 3SM -SN OVC013 M13/M16 A3021 RMK AO2 P0000 T11281156
KJST 172011Z AUTO 30013KT 2SM -SN OVC013 M13/M16 A3022 RMK AO2 P0000 T11281156
KJST 171954Z AUTO 29011KT 3SM -SN OVC013 M13/M16 A3022 RMK AO2 SNB25 SLP285 P0000 T11281156
KJST 171854Z AUTO 27009KT 4SM HZ OVC012 M13/M16 A3024 RMK AO2 SNE17 SLP290 P0000 T11331161
KJST 171812Z AUTO 29009KT 3SM -SN OVC010 M14/M17 A3024 RMK AO2 P0000 T11391167
KJST 171754Z AUTO 29009KT 2 1/2SM -SN OVC011 M14/M17 A3025 RMK AO2 SLP293 P0000 60000 T11391167 11139 21161 58018
KJST 171731Z AUTO 27010KT 2SM -SN OVC011 M14/M17 A3026 RMK AO2 P0000 T11391167
KJST 171703Z AUTO 29010KT 1 1/2SM -SN OVC011 M14/M17 A3028 RMK AO2 P0000 T11441172
KJST 171654Z AUTO 30010KT 2SM -SN OVC011 M14/M17 A3028 RMK AO2 SLP306 P0000 T11441172
KJST 171615Z AUTO 30010KT 1SM -SN BR OVC011 M15/M17 A3030 RMK AO2 P0000 T11501172
KJST 171606Z AUTO 29008KT 3/4SM -SN BR OVC011 M15/M17 A3031 RMK AO2 P0000 T11501172
KJST 171554Z AUTO 29013KT 1SM -SN OVC011 M15/M18 A3030 RMK AO2 SLP313 P0000 T11501178
KJST 171536Z AUTO 29008KT 1SM -SN BR OVC010 M16/M17 A3031 RMK AO2 P0000 T11561172
KJST 171516Z AUTO 29010KT 1SM -SN BR OVC009 M16/M17 A3031 RMK AO2 P0000 T11561172
KJST 171505Z AUTO 27006KT 3/4SM -SN BR OVC009 M16/M17 A3031 RMK AO2 P0000 T11561172
KJST 171454Z AUTO 27005KT 1SM -SN BR BKN009 OVC013 M16/M17 A3031 RMK AO2 SLP312 P0000 60000 T11561172 53004
KJST 171426Z AUTO 28012KT 3/4SM -SN BR OVC011 M16/M18 A3031 RMK AO2 P0000 T11611178
KJST 171354Z AUTO 28008KT 3/4SM -SN BR OVC007 M16/M18 A3030 RMK AO2 SLP310 P0000 T11611178
KJST 171342Z AUTO 28008KT 3/4SM -SN BR OVC007 M16/M17 A3030 RMK AO2 P0000 T11611172
KJST 171254Z AUTO 29008KT 1 1/4SM -SN BR OVC007 M16/M17 A3029 RMK AO2 SLP305 P0000 T11561172
KJST 171251Z AUTO 30009KT 1 1/2SM -SN BR OVC007 M16/M17 A3029 RMK AO2 P0000
KJST 171239Z AUTO 29008KT 2SM -SN BR OVC007 M16/M17 A3030 RMK AO2 P0000 T11561172
KJST 171210Z AUTO 30009KT 3SM -SN BR OVC006 M16/M17 A3029 RMK AO2 P0000 T11561167
KJST 171154Z AUTO 29007KT 2 1/2SM -SN BR OVC007 M15/M17 A3030 RMK AO2 SNE20B31 SLP303 P0000 60000 70007 T11501167 11122 21150 53006
KJST 171120Z AUTO 29009KT 4SM BR OVC007 M15/M17 A3029 RMK AO2 SNE20 P0000 T11501167
KJST 171106Z AUTO 30007KT 2 1/2SM -SN BR OVC007 M15/M17 A3029 RMK AO2 P0000 T11501167
KJST 171054Z AUTO 30010KT 1 1/4SM -SN BR OVC007 M15/M17 A3029 RMK AO2 SLP300 P0000 T11501167
KJST 171045Z AUTO 30010KT 1 1/4SM -SN BR OVC007 M15/M16 A3029 RMK AO2 P0000 T11501161
KJST 171036Z AUTO 30011KT 2SM -SN BR OVC007 M15/M16 A3029 RMK AO2 P0000 T11501161
KJST 171022Z AUTO 29010KT 3SM -SN BR OVC007 M14/M16 A3028 RMK AO2 P0000 T11441161
KJST 170954Z AUTO 30010KT 2 1/2SM -SN BR OVC007 M14/M16 A3028 RMK AO2 SNB0857 SLP296 P0000 T11441156
KJST 170947Z AUTO 30010KT 2 1/2SM -SN BR OVC007 M14/M16 A3028 RMK AO2 SNB0857 P0000 T11441156
KJST 170854Z AUTO 29010KT 6SM BR OVC008 M14/M16 A3028 RMK AO2 SNE46 SLP294 P0000 60000 T11391156 56001
KJST 170803Z AUTO 28009KT 3SM -SN BR OVC007 M13/M15 A3028 RMK AO2 P0000 T11331150
KJST 170754Z AUTO 29009KT 2 1/2SM -SN BR OVC007 M13/M14 A3028 RMK AO2 SLP295 P0000 T11331144
KJST 170709Z AUTO 29010KT 2SM -SN BR OVC008 M13/M14 A3027 RMK AO2 CIG 006V012 P0000 T11281139
KJST 170654Z AUTO 29009KT 4SM -SN BR BKN008 OVC014 M12/M14 A3027 RMK AO2 SNE08B11 CIG 007V012 SLP292 P0000 T11221139
KJST 170619Z AUTO 29012KT 5SM -SN BR OVC008 M12/M14 A3028 RMK AO2 SNE08B11 CIG 006V012 P0000 T11221139
KJST 170610Z AUTO 29012KT 6SM BR OVC010 M12/M14 A3028 RMK AO2 SNE08 CIG 006V014 P0000 T11221139
KJST 170554Z AUTO 30013KT 4SM -SN BR OVC007 M12/M14 A3028 RMK AO2 CIG 006V011 SLP295 P0000 60000 T11221139 11067 21122 50001
KJST 170531Z AUTO 30008KT 2 1/2SM -SN BR OVC008 M12/M13 A3028 RMK AO2 CIG 006V009 P0000 T11171128
KJST 170519Z AUTO 29010KT 3SM -SN BR OVC007 M12/M13 A3028 RMK AO2 P0000 T11171133
KJST 170510Z AUTO 28009KT 2 1/2SM -SN BR OVC007 M12/M13 A3028 RMK AO2 P0000 T11171128
KJST 170454Z AUTO 28011KT 1 3/4SM -SN BR OVC006 M12/M13 A3029 RMK AO2 SLP299 P0000 T11171128 410331117
KJST 170436Z AUTO 28009KT 1 1/2SM -SN BR OVC007 M11/M12 A3029 RMK AO2 P0000 T11111122
KJST 170423Z AUTO 28008KT 2 1/2SM -SN BR OVC009 M11/M12 A3029 RMK AO2 CIG 006V015 P0000 T11061122
KJST 170407Z AUTO 26010KT 4SM -SN BR BKN011 OVC046 M11/M12 A3028 RMK AO2 CIG 008V014 P0000 T11061122
KJST 170354Z AUTO 26010KT 5SM -SN BR SCT013 OVC046 M11/M12 A3028 RMK AO2 SLP294 P0000 T11061122
KJST 170302Z AUTO 27008KT 6SM -SN BR BKN010 BKN018 OVC031 M09/M11 A3028 RMK AO2 P0000 T10941111
KJST 170254Z AUTO 25007KT 5SM -SN BR SCT010 OVC031 M09/M11 A3028 RMK AO2 SLP291 P0000 60000 T10891111 51012
KJST 170234Z AUTO 27008KT 7SM -SN FEW012 OVC030 M09/M11 A3028 RMK AO2 P0000 T10891106
KJST 170154Z AUTO 27011KT 6SM -SN BR FEW010 OVC028 M08/M10 A3027 RMK AO2 SLP288 P0000 T10781100